Terminal Aerodrome Forecast
Issued by NWS North Platte, NE

Home | Current Version | Previous Version | Text Only | Print | Product List | Glossary Off
Versions: 1 2 3 4 5 6 7 8 9 10 11 12 13 14 15 16 17 18

000
FTUS43 KLBF 161700
TAFVTN
TAF
KVTN 161734Z 1618/1718 23008KT P6SM SCT150
     FM170000 VRB05KT P6SM SCT150 SCT250=

USA.gov is the U.S. government's official web portal to all federal, state and local government web resources and services.